Time;durP1;ratioP1;P1;durP2;ratioP2;P2;SDS_P1;SDS_P2;PMS_P1;PMS_P2;Temp;Humidity;BMP_temperature;BMP_pressure;BME280_temperature;BME280_humidity;BME280_pressure;Samples;Min_cycle;Max_cycle;Signal;HPM_P1;HPM_P2
2022/05/25 00:00:13;;;;;;;67.80;18.60;;;13.80;99.90;;;;;;6129401;23;20143;-85
2022/05/25 00:02:39;;;;;;;68.77;21.00;;;13.70;99.90;;;;;;6129987;23;20230;-84
2022/05/25 00:05:07;;;;;;;69.50;22.27;;;13.70;99.90;;;;;;6130479;23;20378;-85
2022/05/25 00:07:33;;;;;;;68.13;20.53;;;13.70;99.90;;;;;;6130036;23;20402;-84
2022/05/25 00:09:58;;;;;;;68.37;20.57;;;13.60;99.90;;;;;;6128740;23;20406;-84
2022/05/25 00:12:24;;;;;;;69.50;22.80;;;13.60;99.90;;;;;;6127058;23;20158;-84
2022/05/25 00:14:50;;;;;;;70.80;24.60;;;13.70;99.90;;;;;;6127610;23;20230;-84
2022/05/25 00:17:16;;;;;;;70.13;20.10;;;13.60;99.90;;;;;;6127562;23;20199;-85
2022/05/25 00:20:01;;;;;;;71.23;16.67;;;13.50;99.90;;;;;;6101409;23;20716;-84
2022/05/25 00:22:37;;;;;;;67.60;19.77;;;13.60;99.90;;;;;;6101726;23;20399;-85
2022/05/25 00:25:02;;;;;;;68.77;20.73;;;13.60;99.90;;;;;;6128125;23;20688;-85
2022/05/25 00:27:28;;;;;;;68.60;20.73;;;13.50;99.90;;;;;;6127911;23;20467;-84
2022/05/25 00:29:54;;;;;;;70.30;26.80;;;13.60;99.90;;;;;;6101596;23;20406;-84
2022/05/25 00:32:22;;;;;;;70.53;22.27;;;13.50;99.90;;;;;;6128467;23;20461;-84
2022/05/25 00:34:48;;;;;;;68.50;19.03;;;13.40;99.90;;;;;;6103310;23;20169;-84
2022/05/25 00:37:16;;;;;;;67.37;20.23;;;13.40;99.90;;;;;;6128991;23;20371;-84
2022/05/25 00:39:42;;;;;;;67.40;17.87;;;13.40;99.90;;;;;;6103592;23;20157;-84
2022/05/25 00:42:08;;;;;;;71.70;19.50;;;13.30;99.90;;;;;;6129689;23;20859;-84
2022/05/25 00:44:34;;;;;;;70.30;19.53;;;13.40;99.90;;;;;;6103874;23;20172;-85
2022/05/25 00:47:00;;;;;;;68.10;19.17;;;13.30;99.90;;;;;;6128656;23;20833;-84
2022/05/25 00:49:32;;;;;;;70.00;16.00;;;13.40;99.90;;;;;;6127502;23;20180;-84
2022/05/25 00:52:13;;;;;;;69.67;17.50;;;13.30;99.90;;;;;;6128442;23;20159;-85
2022/05/25 00:54:49;;;;;;;66.70;18.03;;;13.40;99.90;;;;;;6109393;23;20416;-86
2022/05/25 00:57:25;;;;;;;72.70;19.67;;;13.40;99.90;;;;;;6130829;23;20672;-86
2022/05/25 01:00:10;;;;;;;68.30;20.73;;;13.40;99.90;;;;;;6105318;23;20428;-85
2022/05/25 01:03:01;;;;;;;68.10;19.00;;;13.20;99.90;;;;;;6128679;23;20393;-85
2022/05/25 01:05:38;;;;;;;69.27;21.97;;;13.20;99.90;;;;;;6136340;23;20446;-84
2022/05/25 01:08:29;;;;;;;67.47;18.70;;;13.30;99.90;;;;;;6128615;23;20704;-85
2022/05/25 01:11:16;;;;;;;68.07;19.97;;;13.30;99.90;;;;;;6101987;23;20383;-85
2022/05/25 01:14:03;;;;;;;68.10;17.63;;;13.30;99.90;;;;;;6102019;23;20367;-85
2022/05/25 01:16:51;;;;;;;70.03;17.50;;;13.30;99.90;;;;;;6102063;23;20391;-86
2022/05/25 01:19:17;;;;;;;66.87;17.57;;;13.30;99.90;;;;;;6135822;23;20449;-85
2022/05/25 01:21:58;;;;;;;66.70;17.03;;;13.10;99.90;;;;;;6101532;23;20394;-84
2022/05/25 01:24:59;;;;;;;68.57;14.70;;;13.10;99.90;;;;;;6127553;23;20131;-85
2022/05/25 01:27:34;;;;;;;66.87;15.73;;;12.90;99.90;;;;;;6128153;23;20720;-85
2022/05/25 01:30:03;;;;;;;70.40;19.47;;;12.80;99.90;;;;;;6127682;23;20351;-84
2022/05/25 01:32:48;;;;;;;71.00;25.40;;;12.80;99.90;;;;;;6101479;23;20422;-85
2022/05/25 01:35:13;;;;;;;71.60;29.40;;;12.60;99.90;;;;;;6128686;23;20382;-85
2022/05/25 01:38:16;;;;;;;69.70;22.07;;;12.60;99.90;;;;;;6103550;23;20863;-85
2022/05/25 01:41:02;;;;;;;68.10;19.50;;;12.60;99.90;;;;;;6116224;23;20150;-84
2022/05/25 01:43:49;;;;;;;69.40;25.27;;;12.60;99.90;;;;;;6102784;23;20428;-85
2022/05/25 01:46:22;;;;;;;70.20;26.27;;;12.50;99.90;;;;;;6128195;23;20719;-85
2022/05/25 01:48:50;;;;;;;70.23;25.17;;;12.50;99.90;;;;;;6127975;23;20391;-85
2022/05/25 01:51:24;;;;;;;75.70;31.27;;;12.40;99.90;;;;;;6128125;23;20390;-85
2022/05/25 01:53:54;;;;;;;74.63;37.23;;;12.30;99.90;;;;;;6103103;23;20378;-84
2022/05/25 01:56:23;;;;;;;71.67;25.17;;;12.30;99.90;;;;;;6104875;23;20366;-84
2022/05/25 01:58:54;;;;;;;71.18;25.55;;;12.30;99.90;;;;;;6104321;23;20379;-85
2022/05/25 02:01:21;;;;;;;75.43;30.50;;;12.20;99.90;;;;;;6104396;23;20166;-84
2022/05/25 02:07:07;;;;;;;70.93;23.87;;;12.30;99.90;;;;;;6129465;23;20668;-84
2022/05/25 02:09:51;;;;;;;70.33;26.77;;;12.20;99.90;;;;;;6129099;23;20445;-85
2022/05/25 02:12:52;;;;;;;73.55;30.52;;;12.20;99.90;;;;;;6127280;23;20390;-84
2022/05/25 02:15:24;;;;;;;72.60;29.33;;;12.20;99.90;;;;;;6126360;23;20138;-84
2022/05/25 02:18:03;;;;;;;74.30;37.07;;;12.20;99.90;;;;;;6127048;23;20535;-85
2022/05/25 02:20:49;;;;;;;71.40;22.30;;;12.20;99.90;;;;;;6126994;23;20434;-85
2022/05/25 02:23:26;;;;;;;69.27;21.23;;;12.20;99.90;;;;;;6128090;23;20351;-85
2022/05/25 02:26:33;;;;;;;66.87;16.50;;;12.20;99.90;;;;;;6110107;23;20371;-86
2022/05/25 02:29:25;;;;;;;69.18;20.35;;;12.30;99.90;;;;;;6116793;23;20417;-86
2022/05/25 02:32:05;;;;;;;68.57;16.20;;;12.30;99.90;;;;;;6129546;23;20162;-85
2022/05/25 02:34:32;;;;;;;68.03;17.00;;;12.30;99.90;;;;;;6129570;23;20382;-85
2022/05/25 02:36:59;;;;;;;69.03;19.08;;;12.30;99.90;;;;;;6128837;23;20208;-85
2022/05/25 02:39:25;;;;;;;67.30;16.90;;;12.30;99.90;;;;;;6129049;23;20147;-85
2022/05/25 02:41:56;;;;;;;69.77;21.43;;;12.30;99.90;;;;;;6128435;23;20401;-84
2022/05/25 02:44:22;;;;;;;69.87;19.53;;;12.30;99.90;;;;;;6128593;23;20808;-85
2022/05/25 02:46:48;;;;;;;72.28;25.48;;;12.30;99.90;;;;;;6103125;23;20389;-85
2022/05/25 02:49:14;;;;;;;70.37;23.33;;;12.30;99.90;;;;;;6128370;23;20499;-85
2022/05/25 02:51:40;;;;;;;67.27;16.87;;;12.40;99.90;;;;;;6102434;23;20481;-84
2022/05/25 02:54:07;;;;;;;69.30;18.47;;;12.40;99.90;;;;;;6102379;23;20378;-84
2022/05/25 02:56:33;;;;;;;67.83;16.70;;;12.40;99.90;;;;;;6102502;23;20835;-85
2022/05/25 02:58:59;;;;;;;67.40;14.57;;;12.50;99.90;;;;;;6128169;23;20893;-84
2022/05/25 03:01:25;;;;;;;66.77;15.20;;;12.50;99.90;;;;;;6128053;23;20390;-85
2022/05/25 03:03:51;;;;;;;69.97;13.83;;;12.40;99.90;;;;;;6127664;23;20696;-85
2022/05/25 03:06:17;;;;;;;67.97;16.27;;;12.40;99.90;;;;;;6101156;23;20386;-85
2022/05/25 03:08:44;;;;;;;74.32;17.33;;;12.50;99.90;;;;;;6127505;23;20173;-84
2022/05/25 03:11:09;;;;;;;68.13;14.10;;;12.40;99.90;;;;;;6127302;23;20173;-84
2022/05/25 03:13:35;;;;;;;68.07;18.37;;;12.40;99.90;;;;;;6127466;23;20366;-85
2022/05/25 03:16:03;;;;;;;71.90;19.50;;;12.30;99.90;;;;;;6102558;23;20147;-85
2022/05/25 03:18:28;;;;;;;68.93;20.83;;;12.40;99.90;;;;;;6129094;23;20142;-85
2022/05/25 03:20:54;;;;;;;68.00;18.33;;;12.30;99.90;;;;;;6128453;23;20886;-85
2022/05/25 03:23:20;;;;;;;66.57;14.20;;;12.30;99.90;;;;;;6128801;23;20142;-86
2022/05/25 03:25:47;;;;;;;69.90;14.70;;;12.40;99.90;;;;;;6102432;23;20716;-85
2022/05/25 03:28:13;;;;;;;66.50;13.53;;;12.50;99.90;;;;;;6102626;23;20244;-89
2022/05/25 03:30:39;;;;;;;66.37;13.87;;;12.50;99.90;;;;;;6101628;23;20460;-85
2022/05/25 03:33:05;;;;;;;66.43;13.20;;;12.50;99.90;;;;;;6127521;22;20371;-86
2022/05/25 03:35:33;;;;;;;65.53;11.50;;;12.40;99.90;;;;;;6124064;23;20389;-85
2022/05/25 03:38:01;;;;;;;67.70;14.43;;;12.40;99.90;;;;;;6124251;23;20483;-85
2022/05/25 03:40:28;;;;;;;66.00;13.33;;;12.40;99.90;;;;;;6123789;23;20367;-85
2022/05/25 03:42:53;;;;;;;66.10;13.27;;;12.40;99.90;;;;;;6124063;23;20474;-85
2022/05/25 03:45:19;;;;;;;69.97;14.57;;;12.40;99.90;;;;;;6123993;23;20394;-85
2022/05/25 03:47:45;;;;;;;66.10;12.93;;;12.40;99.90;;;;;;6097636;23;20211;-85
2022/05/25 03:50:11;;;;;;;66.20;13.27;;;12.40;99.90;;;;;;6123742;23;20707;-85
2022/05/25 03:52:40;;;;;;;68.93;15.75;;;12.30;99.90;;;;;;6123380;23;20197;-85
2022/05/25 03:55:07;;;;;;;67.07;13.00;;;12.20;99.90;;;;;;6123347;23;20209;-85
2022/05/25 03:57:35;;;;;;;68.13;16.65;;;12.10;99.90;;;;;;6123492;23;20428;-85
2022/05/25 04:00:00;;;;;;;67.65;16.67;;;12.10;99.90;;;;;;6123734;23;20588;-85
2022/05/25 04:02:28;;;;;;;67.97;17.67;;;12.10;99.90;;;;;;6123426;23;20231;-86
2022/05/25 04:05:10;;;;;;;67.50;16.27;;;12.10;99.90;;;;;;6123749;23;20170;-86
2022/05/25 04:07:49;;;;;;;70.03;16.63;;;12.10;99.90;;;;;;6096922;23;20420;-85
2022/05/25 04:10:19;;;;;;;67.90;16.60;;;12.00;99.90;;;;;;6124525;23;20149;-85
2022/05/25 04:12:45;;;;;;;67.40;13.27;;;12.00;99.90;;;;;;6098549;23;20173;-85
2022/05/25 04:15:15;;;;;;;67.85;18.20;;;12.10;99.90;;;;;;6123758;23;20371;-85
2022/05/25 04:17:41;;;;;;;69.57;18.83;;;12.10;99.90;;;;;;6097753;23;20203;-85
2022/05/25 04:20:08;;;;;;;66.97;16.60;;;12.10;99.90;;;;;;6123362;23;20449;-85
2022/05/25 04:22:35;;;;;;;69.68;16.13;;;12.10;99.90;;;;;;6123602;23;20166;-85
2022/05/25 04:25:04;;;;;;;68.47;14.90;;;12.10;99.90;;;;;;6122972;23;20143;-85
2022/05/25 04:27:29;;;;;;;67.57;17.80;;;12.10;99.90;;;;;;6073727;23;20409;-85
2022/05/25 04:29:55;;;;;;;71.03;19.63;;;12.10;99.90;;;;;;6124099;23;20370;-85
2022/05/25 04:32:21;;;;;;;70.63;21.30;;;12.10;99.90;;;;;;6097673;23;20258;-85
2022/05/25 04:34:46;;;;;;;67.53;15.90;;;12.10;99.90;;;;;;6123627;23;20208;-85
2022/05/25 04:37:57;;;;;;;70.50;22.60;;;12.20;99.90;;;;;;6123552;23;20596;-85
2022/05/25 04:39:58;;;;;;;80.57;43.03;;;12.30;99.90;;;;;;6113059;23;20147;-86
2022/05/25 04:42:28;;;;;;;67.67;15.00;;;12.70;99.90;;;;;;6123479;23;20428;-85
2022/05/25 04:44:59;;;;;;;68.00;13.43;;;13.20;99.90;;;;;;6097430;23;20142;-85
2022/05/25 04:47:29;;;;;;;67.27;10.67;;;13.80;99.90;;;;;;6123855;23;20811;-85
2022/05/25 04:49:55;;;;;;;65.87;6.80;;;14.20;99.90;;;;;;6123158;23;20415;-85
2022/05/25 04:52:21;;;;;;;63.87;4.07;;;14.50;99.90;;;;;;6097500;23;20478;-85
2022/05/25 04:54:46;;;;;;;65.70;5.83;;;14.90;99.90;;;;;;6097266;23;20157;-85
2022/05/25 04:57:22;;;;;;;65.30;6.07;;;15.10;99.90;;;;;;6123165;23;20227;-88
2022/05/25 04:59:50;;;;;;;65.67;5.27;;;15.20;99.90;;;;;;6098605;23;20143;-85
2022/05/25 05:02:16;;;;;;;66.30;5.10;;;15.10;99.90;;;;;;6097593;23;20391;-85
2022/05/25 05:04:42;;;;;;;66.20;5.30;;;15.00;99.90;;;;;;6123043;23;20739;-85
2022/05/25 05:07:08;;;;;;;66.37;5.23;;;14.90;99.90;;;;;;6122948;23;20381;-85
2022/05/25 05:09:35;;;;;;;63.60;3.90;;;14.80;99.90;;;;;;6122940;23;20411;-85
2022/05/25 05:12:01;;;;;;;64.97;4.80;;;14.80;99.90;;;;;;6123262;23;20162;-85
2022/05/25 05:14:29;;;;;;;70.40;4.03;;;14.70;99.90;;;;;;6097161;23;20379;-85
2022/05/25 05:17:03;;;;;;;66.10;5.17;;;14.70;99.90;;;;;;6123420;23;20367;-85
2022/05/25 05:19:29;;;;;;;69.57;4.30;;;14.70;99.90;;;;;;6097825;23;20410;-86
2022/05/25 05:21:59;;;;;;;64.30;4.37;;;14.60;99.90;;;;;;6123608;23;20411;-85
2022/05/25 05:24:30;;;;;;;63.90;3.83;;;14.60;99.90;;;;;;6123125;23;20458;-85
2022/05/25 05:26:56;;;;;;;67.70;4.53;;;14.60;99.90;;;;;;6097907;23;20370;-85
2022/05/25 05:29:26;;;;;;;65.87;4.20;;;14.50;99.90;;;;;;6123335;23;20463;-85
2022/05/25 05:31:52;;;;;;;66.30;4.93;;;14.40;99.90;;;;;;6097802;23;20437;-85
2022/05/25 05:34:18;;;;;;;66.43;4.57;;;14.40;99.90;;;;;;6097928;23;20395;-85
2022/05/25 05:36:53;;;;;;;67.67;5.60;;;14.30;99.90;;;;;;6122958;23;20147;-86
2022/05/25 05:39:22;;;;;;;65.40;5.93;;;14.20;99.90;;;;;;6124188;23;20875;-86
2022/05/25 05:41:52;;;;;;;66.60;5.53;;;14.10;99.90;;;;;;6122823;23;20395;-85
2022/05/25 05:44:22;;;;;;;66.27;5.00;;;14.10;99.90;;;;;;6097200;23;20826;-86
2022/05/25 05:47:05;;;;;;;65.17;4.47;;;14.00;99.90;;;;;;6092282;23;20383;-85
2022/05/25 05:49:36;;;;;;;68.37;4.90;;;13.90;99.90;;;;;;6098128;23;20433;-85
2022/05/25 05:52:11;;;;;;;65.40;4.57;;;13.80;99.90;;;;;;6097141;23;20402;-85
2022/05/25 05:54:38;;;;;;;64.50;5.03;;;13.80;99.90;;;;;;6123111;23;20434;-85
2022/05/25 05:57:07;;;;;;;67.60;5.50;;;13.80;99.90;;;;;;6096751;23;20385;-86
2022/05/25 05:59:32;;;;;;;65.47;6.40;;;13.80;99.90;;;;;;6122507;23;20555;-86
2022/05/25 06:01:58;;;;;;;64.70;5.10;;;13.80;99.90;;;;;;6122648;23;20394;-86
2022/05/25 06:04:30;;;;;;;67.97;4.20;;;13.90;99.90;;;;;;6122541;23;20545;-86
2022/05/25 06:07:08;;;;;;;65.23;4.20;;;13.90;99.90;;;;;;6122680;23;20146;-86
2022/05/25 06:09:35;;;;;;;69.00;6.07;;;13.90;99.90;;;;;;6122458;23;20422;-85
2022/05/25 06:12:01;;;;;;;64.53;6.37;;;13.80;99.90;;;;;;6122342;23;20398;-86
2022/05/25 06:14:27;;;;;;;66.30;6.10;;;13.90;99.90;;;;;;6122511;23;20911;-85
2022/05/25 06:19:45;;;;;;;68.90;5.57;;;13.90;99.90;;;;;;6123208;23;20138;-85
2022/05/25 06:22:18;;;;;;;68.20;6.10;;;14.00;99.90;;;;;;6096394;23;20394;-85
2022/05/25 06:25:23;;;;;;;67.20;4.93;;;14.00;99.90;;;;;;6122477;23;20367;-85
2022/05/25 06:28:18;;;;;;;63.33;4.03;;;14.00;99.90;;;;;;6112253;23;20787;-85
2022/05/25 06:31:03;;;;;;;64.13;3.37;;;14.10;99.90;;;;;;6090354;23;20382;-85
2022/05/25 06:34:00;;;;;;;65.00;3.83;;;14.10;99.90;;;;;;6122110;23;20398;-86
2022/05/25 06:36:29;;;;;;;64.87;4.17;;;14.20;99.90;;;;;;6118666;23;20382;-85
2022/05/25 06:38:56;;;;;;;66.07;4.43;;;14.20;99.90;;;;;;6123917;23;20405;-86
2022/05/25 06:41:23;;;;;;;65.93;5.53;;;14.10;99.90;;;;;;6123364;23;20910;-85
2022/05/25 06:43:48;;;;;;;65.40;4.67;;;14.20;99.90;;;;;;6124332;23;20377;-85
2022/05/25 06:46:18;;;;;;;63.80;4.43;;;14.20;99.90;;;;;;6123300;23;20375;-85
2022/05/25 06:48:45;;;;;;;64.87;4.67;;;14.30;99.90;;;;;;6097052;23;20170;-85
2022/05/25 06:51:33;;;;;;;66.10;5.73;;;14.30;99.90;;;;;;6124080;23;20441;-85
2022/05/25 06:54:01;;;;;;;64.80;4.63;;;14.40;99.90;;;;;;6128630;23;20347;-85
2022/05/25 06:56:26;;;;;;;65.33;4.77;;;14.40;99.90;;;;;;6128365;23;20373;-85
2022/05/25 06:58:57;;;;;;;71.93;6.27;;;14.50;99.90;;;;;;6125397;23;20366;-85
2022/05/25 07:01:26;;;;;;;65.20;5.90;;;14.50;99.90;;;;;;6124768;23;20414;-85
2022/05/25 07:03:55;;;;;;;63.77;4.93;;;14.50;99.90;;;;;;6125895;23;20367;-85
2022/05/25 07:06:24;;;;;;;64.53;4.83;;;14.50;99.90;;;;;;6101073;23;20428;-85
2022/05/25 07:08:50;;;;;;;63.90;4.27;;;14.50;99.90;;;;;;6126933;23;20409;-84
2022/05/25 07:11:17;;;;;;;64.17;4.20;;;14.40;99.90;;;;;;6126025;23;20387;-85
2022/05/25 07:13:42;;;;;;;64.53;4.70;;;14.50;99.90;;;;;;6126267;23;20743;-84
2022/05/25 07:16:11;;;;;;;66.20;4.63;;;14.60;99.90;;;;;;6097956;23;20374;-85
2022/05/25 07:18:37;;;;;;;65.03;5.93;;;14.70;99.90;;;;;;6125819;23;20204;-85
2022/05/25 07:21:07;;;;;;;64.47;4.83;;;14.70;99.90;;;;;;6125736;23;20391;-85
2022/05/25 07:23:37;;;;;;;64.37;4.53;;;14.70;99.90;;;;;;6100134;23;20716;-85
2022/05/25 07:26:04;;;;;;;64.23;5.60;;;14.70;99.90;;;;;;6100038;23;20382;-85
2022/05/25 07:28:30;;;;;;;64.47;4.90;;;14.70;99.90;;;;;;6125456;23;20412;-85
2022/05/25 07:31:07;;;;;;;64.20;5.50;;;14.80;99.90;;;;;;6125814;23;20428;-85
2022/05/25 07:33:34;;;;;;;65.67;5.40;;;14.80;99.90;;;;;;6125998;23;20428;-84
2022/05/25 07:36:00;;;;;;;64.20;5.20;;;14.90;99.90;;;;;;6126222;23;20928;-85
2022/05/25 07:38:29;;;;;;;63.50;4.43;;;14.90;99.90;;;;;;6125347;23;20883;-85
2022/05/25 07:40:56;;;;;;;63.80;5.70;;;14.90;99.90;;;;;;6122550;23;20707;-85
2022/05/25 07:43:27;;;;;;;66.80;4.67;;;15.00;99.90;;;;;;6124787;23;20372;-85
2022/05/25 07:45:53;;;;;;;63.90;4.23;;;15.10;99.90;;;;;;6123276;23;20400;-85
2022/05/25 07:48:19;;;;;;;66.47;4.20;;;15.00;98.90;;;;;;6123851;23;20418;-85
2022/05/25 07:50:45;;;;;;;64.50;3.33;;;15.10;99.90;;;;;;6122589;23;20375;-85
2022/05/25 07:56:00;;;;;;;64.70;2.83;;;15.20;97.10;;;;;;6123339;23;20464;-85
2022/05/25 07:58:26;;;;;;;65.37;3.17;;;15.30;82.60;;;;;;6099513;23;20432;-85
2022/05/25 08:00:54;;;;;;;67.17;3.03;;;15.30;68.60;;;;;;6127693;23;20374;-85
2022/05/25 08:06:10;;;;;;;64.17;2.70;;;15.40;48.70;;;;;;6126583;23;20401;-85
2022/05/25 08:11:13;;;;;;;63.97;2.70;;;15.50;46.30;;;;;;6133814;22;20454;-85
2022/05/25 08:14:13;;;;;;;64.40;2.90;;;15.50;41.70;;;;;;6124994;23;20370;-85
2022/05/25 08:16:35;;;;;;;63.60;2.60;;;15.60;62.90;;;;;;6122472;23;20735;-85
2022/05/25 08:19:14;;;;;;;64.27;2.60;;;15.60;57.10;;;;;;6125662;23;20359;-85
2022/05/25 08:21:40;;;;;;;63.77;2.83;;;15.70;61.60;;;;;;6125915;23;20159;-85
2022/05/25 08:24:09;;;;;;;68.70;2.67;;;15.80;43.80;;;;;;6125889;23;20369;-85
2022/05/25 08:26:34;;;;;;;64.27;2.73;;;15.80;32.30;;;;;;6123819;23;20701;-85
2022/05/25 08:29:00;;;;;;;64.40;2.47;;;15.70;36.90;;;;;;6124676;23;20400;-85
2022/05/25 08:31:35;;;;;;;64.40;2.47;;;15.80;34.20;;;;;;6124108;23;20612;-86
2022/05/25 08:34:04;;;;;;;65.60;3.40;;;15.90;32.10;;;;;;6124574;23;20128;-85
2022/05/25 08:36:33;;;;;;;63.93;2.60;;;16.00;35.80;;;;;;6124759;23;20370;-85
2022/05/25 08:38:59;;;;;;;63.63;2.50;;;16.10;34.50;;;;;;6124901;22;20440;-85
2022/05/25 08:41:40;;;;;;;67.73;2.63;;;16.10;35.10;;;;;;6123996;23;20394;-86
2022/05/25 08:44:11;;;;;;;63.83;2.57;;;16.20;31.30;;;;;;6126240;23;20368;-85
2022/05/25 08:46:38;;;;;;;64.73;2.83;;;16.20;24.20;;;;;;6123267;23;20349;-86
2022/05/25 08:49:11;;;;;;;64.47;2.60;;;16.30;30.00;;;;;;6097805;23;20422;-86
2022/05/25 08:51:55;;;;;;;64.47;2.50;;;16.40;23.50;;;;;;6122958;23;20380;-86
2022/05/25 08:54:38;;;;;;;64.10;2.20;;;16.60;23.30;;;;;;6123555;23;20343;-86
2022/05/25 08:57:22;;;;;;;64.57;2.00;;;16.70;13.30;;;;;;6123279;23;20346;-86
2022/05/25 08:59:59;;;;;;;64.07;2.30;;;16.70;13.30;;;;;;6097837;23;20447;-86
2022/05/25 09:02:48;;;;;;;64.07;1.97;;;16.80;10.50;;;;;;6101805;23;20408;-85
2022/05/25 09:05:34;;;;;;;64.60;3.20;;;16.90;15.90;;;;;;6126458;23;20407;-85
2022/05/25 09:08:22;;;;;;;63.97;2.60;;;16.90;1.00;;;;;;6101551;23;20477;-85
2022/05/25 09:11:40;;;;;;;65.37;4.10;;;17.10;3.80;;;;;;6100746;23;20404;-85
2022/05/25 09:14:48;;;;;;;64.70;4.17;;;17.10;1.00;;;;;;6101534;23;20381;-85
2022/05/25 09:17:23;;;;;;;64.40;3.27;;;17.20;1.00;;;;;;6125118;22;20430;-85
2022/05/25 09:23:23;;;;;;;64.70;3.03;;;17.50;1.00;;;;;;6128203;23;20397;-85
2022/05/25 09:26:09;;;;;;;64.70;2.97;;;17.60;1.00;;;;;;6129652;23;20423;-85
2022/05/25 09:28:38;;;;;;;65.37;3.13;;;17.80;1.00;;;;;;6129630;22;20922;-85
2022/05/25 09:31:11;;;;;;;64.70;2.90;;;18.00;1.00;;;;;;6103802;23;20398;-85
2022/05/25 09:33:43;;;;;;;64.80;4.00;;;18.20;1.00;;;;;;6130537;23;20474;-84
2022/05/25 09:36:15;;;;;;;65.97;6.27;;;18.40;1.00;;;;;;6154475;22;20435;-87
2022/05/25 09:38:45;;;;;;;65.03;4.20;;;18.40;1.00;;;;;;6189818;23;20451;-87
2022/05/25 09:41:14;;;;;;;67.20;7.00;;;18.40;1.00;;;;;;6189854;23;20402;-87
2022/05/25 09:43:43;;;;;;;65.37;4.37;;;18.40;1.00;;;;;;6190718;23;20372;-88
2022/05/25 09:46:42;;;;;;;66.57;4.43;;;18.50;1.00;;;;;;6216364;23;20674;-87
2022/05/25 09:49:14;;;;;;;66.17;6.13;;;18.70;1.00;;;;;;6210969;23;20447;-87
2022/05/25 09:51:54;;;;;;;68.10;6.97;;;19.00;1.00;;;;;;6216308;23;20768;-87
2022/05/25 09:54:27;;;;;;;65.13;4.00;;;19.20;1.00;;;;;;6190827;23;20425;-87
2022/05/25 09:57:04;;;;;;;65.90;2.83;;;19.20;1.00;;;;;;6216620;23;20390;-87
2022/05/25 09:59:36;;;;;;;67.50;9.77;;;19.40;1.00;;;;;;6190199;23;20387;-87
2022/05/25 10:02:27;;;;;;;67.07;8.00;;;19.60;1.00;;;;;;6189706;23;20801;-88
2022/05/25 10:04:55;;;;;;;65.57;2.50;;;19.90;1.00;;;;;;6216344;23;20772;-88
2022/05/25 10:07:35;;;;;;;65.00;2.27;;;20.10;1.00;;;;;;6189716;23;20379;-88
2022/05/25 10:10:05;;;;;;;65.27;2.00;;;20.00;1.00;;;;;;6189574;23;20499;-87
2022/05/25 10:12:43;;;;;;;65.30;2.33;;;19.90;1.00;;;;;;6190044;23;20411;-89
2022/05/25 10:15:28;;;;;;;66.97;2.20;;;20.10;1.00;;;;;;6218733;23;20388;-87
2022/05/25 10:17:54;;;;;;;65.90;2.33;;;20.00;1.00;;;;;;6190063;23;20871;-86
2022/05/25 10:20:22;;;;;;;65.10;2.00;;;19.80;1.00;;;;;;6217192;23;20372;-87
2022/05/25 10:22:59;;;;;;;65.07;2.40;;;20.00;1.00;;;;;;6189927;23;20160;-87
2022/05/25 10:25:48;;;;;;;65.33;2.43;;;20.30;1.00;;;;;;6216630;23;20414;-87
2022/05/25 10:28:21;;;;;;;65.20;2.60;;;20.40;1.00;;;;;;6216210;23;20414;-87
2022/05/25 10:37:39;;;;;;;65.80;4.10;;;21.10;1.00;;;;;;6217252;23;20385;-86
2022/05/25 10:40:08;;;;;;;66.30;4.80;;;21.40;1.00;;;;;;6210633;23;20406;-86
2022/05/25 10:42:44;;;;;;;66.00;4.60;;;21.60;1.00;;;;;;6189675;23;20392;-86
2022/05/25 10:45:19;;;;;;;66.27;3.30;;;21.70;1.00;;;;;;6191453;23;20368;-86
2022/05/25 10:47:54;;;;;;;65.47;3.50;;;21.90;1.00;;;;;;6216670;23;20408;-87
2022/05/25 10:50:32;;;;;;;66.10;3.80;;;22.00;1.00;;;;;;6189698;23;20389;-87
2022/05/25 10:53:31;;;;;;;66.57;3.27;;;22.10;1.00;;;;;;6190212;23;20398;-86
2022/05/25 10:56:06;;;;;;;67.00;3.87;;;22.20;1.00;;;;;;6217429;23;20351;-87
2022/05/25 10:58:54;;;;;;;65.87;4.40;;;22.30;1.00;;;;;;6216008;23;20725;-87
2022/05/25 11:02:02;;;;;;;66.20;5.20;;;22.40;1.00;;;;;;6216736;23;20446;-87
2022/05/25 11:05:02;;;;;;;72.97;4.70;;;22.30;1.00;;;;;;6214956;23;20378;-88
2022/05/25 11:07:42;;;;;;;65.87;4.53;;;22.20;1.00;;;;;;6216222;23;20706;-89
2022/05/25 11:10:23;;;;;;;67.77;7.00;;;21.80;1.00;;;;;;6191087;23;20376;-87
2022/05/25 11:12:55;;;;;;;68.43;4.97;;;21.80;1.00;;;;;;6216874;23;20505;-86
2022/05/25 11:15:45;;;;;;;69.10;4.53;;;21.60;1.00;;;;;;6216069;23;20375;-88
2022/05/25 11:18:35;;;;;;;65.90;4.83;;;21.70;1.00;;;;;;6219029;23;20656;-87
2022/05/25 11:21:09;;;;;;;66.07;5.00;;;21.90;1.00;;;;;;6218260;23;20414;-87
2022/05/25 11:24:07;;;;;;;65.77;4.60;;;21.60;1.00;;;;;;6192133;23;20403;-86
2022/05/25 11:26:47;;;;;;;66.37;4.73;;;21.40;1.00;;;;;;6219068;23;20348;-86
2022/05/25 11:29:36;;;;;;;95.47;26.83;;;21.70;1.00;;;;;;6192559;23;20399;-86
2022/05/25 11:32:02;;;;;;;73.73;8.80;;;22.10;1.00;;;;;;6222061;23;20392;-86
2022/05/25 11:34:36;;;;;;;65.27;3.00;;;22.40;1.00;;;;;;6223813;23;20428;-88
2022/05/25 11:37:26;;;;;;;64.90;2.40;;;22.50;1.00;;;;;;6224376;23;20159;-87
2022/05/25 11:40:06;;;;;;;65.80;2.17;;;22.30;1.00;;;;;;6224971;23;20378;-87
2022/05/25 11:42:34;;;;;;;67.20;4.13;;;21.90;1.00;;;;;;6224317;23;20371;-87
2022/05/25 11:45:19;;;;;;;66.67;3.10;;;21.80;1.00;;;;;;6197628;23;20400;-87
2022/05/25 11:48:21;;;;;;;66.60;5.63;;;22.10;1.00;;;;;;6197617;23;20445;-86
2022/05/25 11:51:01;;;;;;;65.80;4.37;;;22.40;1.00;;;;;;6197582;23;20368;-87
2022/05/25 11:53:36;;;;;;;65.10;2.63;;;22.20;1.00;;;;;;6224635;23;20801;-87
2022/05/25 11:56:20;;;;;;;65.10;2.20;;;22.20;1.00;;;;;;6224163;23;20351;-87
2022/05/25 11:59:06;;;;;;;66.93;2.77;;;22.10;1.00;;;;;;6224501;23;20352;-85
2022/05/25 12:01:47;;;;;;;66.10;5.10;;;21.90;1.00;;;;;;6195690;23;20396;-86
2022/05/25 12:04:52;;;;;;;64.93;2.33;;;21.90;1.00;;;;;;6224432;23;20358;-87
2022/05/25 12:07:55;;;;;;;66.27;2.87;;;21.90;1.00;;;;;;6221736;23;20684;-86
2022/05/25 12:10:32;;;;;;;64.97;2.27;;;22.40;1.00;;;;;;6221918;23;20347;-86
2022/05/25 12:13:22;;;;;;;65.23;2.00;;;22.80;1.00;;;;;;6221903;23;20721;-86
2022/05/25 12:16:11;;;;;;;65.67;3.40;;;22.90;1.00;;;;;;6222231;23;20345;-86
2022/05/25 12:18:49;;;;;;;65.37;2.40;;;22.90;1.00;;;;;;6194610;23;20451;-86
2022/05/25 12:21:22;;;;;;;66.00;2.17;;;23.20;1.00;;;;;;6196204;23;20419;-87
2022/05/25 12:24:19;;;;;;;65.10;1.87;;;23.10;1.00;;;;;;6221006;23;20864;-86
2022/05/25 12:26:46;;;;;;;65.00;1.80;;;22.60;1.00;;;;;;6220440;23;20390;-86
2022/05/25 12:29:17;;;;;;;73.50;2.10;;;22.50;1.00;;;;;;6219949;23;20404;-86
2022/05/25 12:31:46;;;;;;;64.80;1.87;;;22.50;1.00;;;;;;6220592;23;20459;-87
2022/05/25 12:34:20;;;;;;;64.87;1.83;;;22.10;1.00;;;;;;6221048;23;20367;-87
2022/05/25 12:36:46;;;;;;;64.80;1.73;;;21.90;1.00;;;;;;6209131;23;20398;-87
2022/05/25 12:39:35;;;;;;;64.57;1.90;;;22.20;1.00;;;;;;6224590;23;20382;-88
2022/05/25 12:42:23;;;;;;;64.87;1.83;;;22.10;1.00;;;;;;6223240;23;20172;-87
2022/05/25 12:50:58;;;;;;;65.60;3.43;;;21.90;1.00;;;;;;6250346;22;20435;-87
2022/05/25 12:53:38;;;;;;;65.53;1.70;;;21.90;1.00;;;;;;6249993;23;20370;-87
2022/05/25 12:56:26;;;;;;;64.80;1.60;;;22.30;1.00;;;;;;6250761;23;20665;-87
2022/05/25 12:58:57;;;;;;;65.20;1.77;;;22.60;1.00;;;;;;6221854;23;20421;-88
2022/05/25 13:01:23;;;;;;;65.27;1.60;;;22.70;1.00;;;;;;6249848;22;20383;-87
2022/05/25 13:03:48;;;;;;;65.07;2.10;;;22.80;1.00;;;;;;6248214;23;20374;-86
2022/05/25 13:06:17;;;;;;;64.67;1.73;;;22.70;1.00;;;;;;6248078;23;20155;-85
2022/05/25 13:09:00;;;;;;;65.10;1.77;;;22.30;1.00;;;;;;6222100;23;20172;-86
2022/05/25 13:11:32;;;;;;;67.20;2.03;;;21.80;1.00;;;;;;6247671;22;20387;-86
2022/05/25 13:14:18;;;;;;;64.97;1.60;;;21.90;1.00;;;;;;6222596;23;20860;-86
2022/05/25 13:16:50;;;;;;;71.67;3.20;;;22.20;1.00;;;;;;6250934;23;20343;-87
2022/05/25 13:19:41;;;;;;;65.37;2.00;;;22.00;1.00;;;;;;6223574;23;20374;-87
2022/05/25 13:22:21;;;;;;;69.93;1.60;;;21.90;1.00;;;;;;6248649;22;20395;-86
2022/05/25 13:25:25;;;;;;;64.97;1.70;;;21.80;1.00;;;;;;6249438;23;20454;-87
2022/05/25 13:28:13;;;;;;;65.50;1.70;;;21.60;1.00;;;;;;6248472;23;20473;-87
2022/05/25 13:30:50;;;;;;;66.10;2.20;;;21.40;1.00;;;;;;6220758;22;20386;-86
2022/05/25 13:33:23;;;;;;;66.17;3.50;;;21.30;1.00;;;;;;6248397;23;20393;-87
2022/05/25 13:36:05;;;;;;;66.67;1.80;;;21.70;1.00;;;;;;6217383;23;20380;-87
2022/05/25 13:38:51;;;;;;;66.07;1.70;;;22.10;1.00;;;;;;6190662;23;20372;-87
2022/05/25 13:41:45;;;;;;;65.07;1.70;;;22.50;1.00;;;;;;6196515;23;20417;-87